createdAt,value
2017-11-19T00:01:15.656Z,99968.73
2017-11-19T00:04:17.396Z,99965.62
2017-11-19T00:07:18.850Z,99970.11
2017-11-19T00:10:20.515Z,99973.37
2017-11-19T00:13:22.018Z,99970.29
2017-11-19T00:16:24.374Z,99957.82
2017-11-19T00:19:27.256Z,99957.39
2017-11-19T00:22:28.941Z,99955.19
2017-11-19T00:25:31.154Z,99959.94
2017-11-19T00:28:32.621Z,99956.63
2017-11-19T00:31:34.146Z,99950.69
2017-11-19T00:34:35.602Z,99953.11
2017-11-19T00:37:37.162Z,99947.02
2017-11-19T00:40:38.639Z,99937.84
2017-11-19T00:43:40.426Z,99944.34
2017-11-19T00:46:41.989Z,99940.08
2017-11-19T00:49:44.396Z,99939.86
2017-11-19T00:52:45.950Z,99934.96
2017-11-19T00:55:48.678Z,99945.58
2017-11-19T00:58:50.946Z,99933.59
2017-11-19T01:01:52.459Z,99933.16
2017-11-19T01:04:53.973Z,99941.87
2017-11-19T01:07:55.477Z,99946.12
2017-11-19T01:10:56.949Z,99944.46
2017-11-19T01:13:58.406Z,99943.30
2017-11-19T01:16:59.877Z,99941.47
2017-11-19T01:20:01.329Z,99932.95
2017-11-19T01:23:02.822Z,99948.75
2017-11-19T01:26:05.095Z,99940.08
2017-11-19T01:29:06.546Z,99931.25
2017-11-19T01:32:08.064Z,99934.50
2017-11-19T01:35:09.583Z,99936.70
2017-11-19T01:38:11.134Z,99943.69
2017-11-19T01:41:12.638Z,99944.01
2017-11-19T01:44:14.891Z,99942.35
2017-11-19T01:47:16.413Z,99950.33
2017-11-19T01:50:17.953Z,99952.52
2017-11-19T01:53:19.429Z,99943.83
2017-11-19T01:56:20.930Z,99934.55
2017-11-19T01:59:22.468Z,99948.80
2017-11-19T02:02:30.105Z,99945.38
2017-11-19T02:05:31.573Z,99935.37
2017-11-19T02:08:33.022Z,99933.53
2017-11-19T02:11:34.505Z,99950.05
2017-11-19T02:14:36.072Z,99931.67
2017-11-19T02:17:38.637Z,99936.27
2017-11-19T02:20:40.257Z,99941.44
2017-11-19T02:23:41.800Z,99940.94
2017-11-19T02:26:43.998Z,99931.95
2017-11-19T02:29:45.455Z,99930.98
2017-11-19T02:32:46.959Z,99930.55
2017-11-19T02:35:48.518Z,99932.70
2017-11-19T02:38:50.012Z,99934.26
2017-11-19T02:41:51.561Z,99933.71
2017-11-19T02:44:53.041Z,99933.79
2017-11-19T02:47:54.525Z,99924.68
2017-11-19T02:50:55.954Z,99943.56
2017-11-19T02:53:57.501Z,99951.94
2017-11-19T02:56:58.946Z,99947.72
2017-11-19T03:00:00.455Z,99938.53
2017-11-19T03:03:02.637Z,99954.04
2017-11-19T03:06:04.857Z,99960.08
2017-11-19T03:09:06.326Z,99961.38
2017-11-19T03:12:07.839Z,99960.94
2017-11-19T03:15:09.314Z,99963.09
2017-11-19T03:18:10.776Z,99957.14
2017-11-19T03:21:12.304Z,99961.56
2017-11-19T03:24:13.857Z,99967.61
2017-11-19T03:27:15.313Z,99953.66
2017-11-19T03:30:16.825Z,99953.63
2017-11-19T03:33:18.256Z,99952.14
2017-11-19T03:36:19.712Z,99957.00
2017-11-19T03:39:21.222Z,99945.48
2017-11-19T03:42:22.702Z,99958.06
2017-11-19T03:45:24.189Z,99956.92
2017-11-19T03:48:25.633Z,99953.88
2017-11-19T03:51:27.105Z,99952.97
2017-11-19T03:54:29.282Z,99951.59
2017-11-19T03:57:31.502Z,99955.66
2017-11-19T04:00:32.995Z,99956.48
2017-11-19T04:03:34.517Z,99953.91
2017-11-19T04:06:36.068Z,99950.44
2017-11-19T04:09:37.501Z,99954.28
2017-11-19T04:12:39.337Z,99958.22
2017-11-19T04:15:41.552Z,99963.91
2017-11-19T04:18:43.004Z,99963.95
2017-11-19T04:21:44.536Z,99967.02
2017-11-19T04:24:46.064Z,99969.91
2017-11-19T04:27:48.336Z,99966.51
2017-11-19T04:30:50.583Z,99968.73
2017-11-19T04:33:52.094Z,99967.14
2017-11-19T04:36:53.564Z,99956.75
2017-11-19T04:39:55.106Z,99952.97
2017-11-19T04:42:56.536Z,99957.66
2017-11-19T04:45:58.740Z,99951.15
2017-11-19T04:49:00.301Z,99942.12
2017-11-19T04:52:01.779Z,99944.63
2017-11-19T04:55:03.216Z,99962.59
2017-11-19T04:58:04.677Z,99965.09
2017-11-19T05:01:06.160Z,99960.41
2017-11-19T05:04:08.374Z,99969.61
2017-11-19T05:07:09.872Z,99975.80
2017-11-19T05:10:11.329Z,99974.44
2017-11-19T05:13:12.806Z,99974.83
2017-11-19T05:19:23.169Z,99978.30
2017-11-19T05:22:24.604Z,99977.94
2017-11-19T05:25:26.067Z,99981.91
2017-11-19T05:28:27.549Z,99978.80
2017-11-19T05:31:29.700Z,99998.77
2017-11-19T05:34:31.169Z,99982.69
2017-11-19T05:37:32.632Z,99991.59
2017-11-19T05:40:34.904Z,100004.25
2017-11-19T05:43:37.086Z,100025.91
2017-11-19T05:46:38.523Z,100020.34
2017-11-19T05:49:40.667Z,100021.98
2017-11-19T05:52:42.086Z,100023.22
2017-11-19T05:55:43.545Z,100019.47
2017-11-19T05:58:45.017Z,100020.02
2017-11-19T06:01:46.465Z,100016.95
2017-11-19T06:04:47.897Z,100014.62
2017-11-19T06:07:49.365Z,100030.23
2017-11-19T06:10:50.790Z,100011.08
2017-11-19T06:13:52.222Z,100016.31
2017-11-19T06:16:54.374Z,100022.86
2017-11-19T06:19:55.841Z,100024.16
2017-11-19T06:22:58.065Z,100037.84
2017-11-19T06:25:59.591Z,100026.89
2017-11-19T06:29:01.064Z,100026.89
2017-11-19T06:32:02.549Z,100034.29
2017-11-19T06:35:03.990Z,100041.73
2017-11-19T06:38:05.497Z,100035.45
2017-11-19T06:41:07.694Z,100033.89
2017-11-19T06:44:09.114Z,100033.27
2017-11-19T06:47:10.594Z,100037.02
2017-11-19T06:50:12.064Z,100034.78
2017-11-19T06:53:13.530Z,100023.86
2017-11-19T06:56:15.778Z,100029.03
2017-11-19T06:59:17.287Z,100037.42
2017-11-19T07:02:18.793Z,100044.32
2017-11-19T07:05:20.391Z,100042.60
2017-11-19T07:08:21.856Z,100054.49
2017-11-19T07:11:23.362Z,100051.42
2017-11-19T07:14:24.835Z,100064.93
2017-11-19T07:17:26.382Z,100052.30
2017-11-19T07:20:27.878Z,100057.09
2017-11-19T07:23:29.393Z,100056.66
2017-11-19T07:26:30.890Z,100056.69
2017-11-19T07:29:32.370Z,100057.50
2017-11-19T07:32:34.655Z,100058.00
2017-11-19T07:35:36.097Z,100051.88
2017-11-19T07:38:38.305Z,100064.10
2017-11-19T07:41:39.778Z,100057.47
2017-11-19T07:44:41.238Z,100064.00
2017-11-19T07:47:42.747Z,100067.02
2017-11-19T07:50:44.236Z,100064.54
2017-11-19T07:53:45.717Z,100064.55
2017-11-19T07:56:47.290Z,100068.05
2017-11-19T07:59:49.532Z,100062.33
2017-11-19T08:02:51.015Z,100061.05
2017-11-19T08:05:53.270Z,100068.02
2017-11-19T08:08:55.633Z,100087.28
2017-11-19T08:11:57.124Z,100060.59
2017-11-19T08:14:58.649Z,100086.83
2017-11-19T08:18:00.183Z,100079.84
2017-11-19T08:21:01.658Z,100096.41
2017-11-19T08:24:03.151Z,100099.92
2017-11-19T08:27:04.623Z,100096.42
2017-11-19T08:30:06.108Z,100104.23
2017-11-19T08:33:07.545Z,100100.77
2017-11-19T08:36:09.034Z,100118.20
2017-11-19T08:39:10.589Z,100113.45
2017-11-19T08:42:12.057Z,100111.23
2017-11-19T08:45:14.397Z,100124.34
2017-11-19T08:48:15.734Z,100122.94
2017-11-19T08:51:17.189Z,100102.78
2017-11-19T08:54:18.595Z,100111.64
2017-11-19T08:57:19.996Z,100116.79
2017-11-19T09:00:21.390Z,100125.62
2017-11-19T09:03:23.510Z,100116.02
2017-11-19T09:06:24.931Z,100125.17
2017-11-19T09:09:26.383Z,100118.20
2017-11-19T09:12:27.835Z,100111.53
2017-11-19T09:15:29.222Z,100117.56
2017-11-19T09:18:30.579Z,100119.84
2017-11-19T09:21:31.884Z,100120.12
2017-11-19T09:24:33.350Z,100127.23
2017-11-19T09:27:34.705Z,100132.27
2017-11-19T09:30:36.194Z,100124.41
2017-11-19T09:33:37.588Z,100136.08
2017-11-19T09:36:38.990Z,100147.81
2017-11-19T09:39:40.508Z,100147.09
2017-11-19T09:42:41.871Z,100138.97
2017-11-19T09:45:43.290Z,100149.63
2017-11-19T09:48:44.677Z,100144.28
2017-11-19T09:51:46.025Z,100141.50
2017-11-19T09:54:47.467Z,100140.52
2017-11-19T09:57:48.827Z,100158.25
2017-11-19T10:00:50.284Z,100151.18
2017-11-19T10:03:51.685Z,100148.34
2017-11-19T10:06:53.825Z,100154.98
2017-11-19T10:09:55.159Z,100171.42
2017-11-19T10:12:56.531Z,100147.78
2017-11-19T10:15:57.968Z,100157.69
2017-11-19T10:18:59.443Z,100139.56
2017-11-19T10:22:00.895Z,100136.94
2017-11-19T10:25:02.345Z,100142.95
2017-11-19T10:28:03.765Z,100150.47
2017-11-19T10:31:05.192Z,100147.95
2017-11-19T10:34:06.562Z,100152.48
2017-11-19T10:37:07.895Z,100153.80
2017-11-19T10:40:09.519Z,100135.13
2017-11-19T10:43:10.975Z,100147.56
2017-11-19T10:46:12.286Z,100137.69
2017-11-19T10:49:13.658Z,100147.07
2017-11-19T10:52:15.079Z,100150.81
2017-11-19T10:55:16.482Z,100146.91
2017-11-19T10:58:18.623Z,100151.19
2017-11-19T11:01:20.040Z,100162.45
2017-11-19T11:04:21.825Z,100158.94
2017-11-19T11:07:23.221Z,100155.92
2017-11-19T11:10:25.419Z,100162.27
2017-11-19T11:13:26.814Z,100165.03
2017-11-19T11:16:28.221Z,100162.89
2017-11-19T11:19:29.667Z,100161.81
2017-11-19T11:22:31.083Z,100167.92
2017-11-19T11:25:32.640Z,100159.25
2017-11-19T11:28:34.053Z,100168.22
2017-11-19T11:31:35.615Z,100164.61
2017-11-19T11:34:37.027Z,100161.12
2017-11-19T11:37:38.470Z,100170.03
2017-11-19T11:40:40.738Z,100165.13
2017-11-19T11:43:42.935Z,100164.30
2017-11-19T11:46:44.295Z,100167.98
2017-11-19T11:49:45.698Z,100161.08
2017-11-19T11:52:47.154Z,100172.23
2017-11-19T11:55:48.590Z,100171.59
2017-11-19T11:58:50.008Z,100165.20
2017-11-19T12:01:51.501Z,100164.78
2017-11-19T12:04:52.940Z,100168.20
2017-11-19T12:07:54.579Z,100170.19
2017-11-19T12:10:56.011Z,100149.90
2017-11-19T12:13:57.492Z,100166.07
2017-11-19T12:16:58.965Z,100167.93
2017-11-19T12:20:00.426Z,100174.88
2017-11-19T12:23:01.845Z,100172.23
2017-11-19T12:26:03.305Z,100184.85
2017-11-19T12:29:04.792Z,100184.99
2017-11-19T12:32:06.272Z,100168.59
2017-11-19T12:35:07.730Z,100169.47
2017-11-19T12:38:09.099Z,100172.95
2017-11-19T12:41:10.587Z,100168.55
2017-11-19T12:44:13.657Z,100174.95
2017-11-19T12:47:15.159Z,100174.83
2017-11-19T12:50:17.702Z,100174.06
2017-11-19T12:53:21.488Z,100178.23
2017-11-19T12:56:24.083Z,100192.67
2017-11-19T12:59:26.846Z,100186.44
2017-11-19T13:02:28.290Z,100192.55
2017-11-19T13:05:30.064Z,100187.28
2017-11-19T13:08:32.017Z,100209.92
2017-11-19T13:11:33.602Z,100193.84
2017-11-19T13:14:35.008Z,100188.88
2017-11-19T13:17:37.169Z,100188.42
2017-11-19T13:20:39.621Z,100188.24
2017-11-19T13:23:41.177Z,100178.84
2017-11-19T13:26:42.559Z,100183.63
2017-11-19T13:29:44.701Z,100189.05
2017-11-19T13:32:46.159Z,100177.20
2017-11-19T13:35:47.638Z,100199.28
2017-11-19T13:38:49.066Z,100195.75
2017-11-19T13:41:50.379Z,100192.08
2017-11-19T13:44:51.808Z,100187.76
2017-11-19T13:47:53.230Z,100208.44
2017-11-19T13:50:55.411Z,100204.48
2017-11-19T13:53:56.824Z,100205.80
2017-11-19T13:56:58.215Z,100199.49
2017-11-19T14:00:00.640Z,100203.49
2017-11-19T14:03:02.032Z,100189.23
2017-11-19T14:06:04.288Z,100188.27
2017-11-19T14:09:05.660Z,100200.88
2017-11-19T14:12:07.824Z,100196.39
2017-11-19T14:15:10.557Z,100210.88
2017-11-19T14:18:12.810Z,100207.47
2017-11-19T14:21:14.201Z,100213.45
2017-11-19T14:24:15.650Z,100218.05
2017-11-19T14:27:17.080Z,100212.99
2017-11-19T14:30:18.463Z,100206.78
2017-11-19T14:33:19.940Z,100209.91
2017-11-19T14:36:22.036Z,100218.31
2017-11-19T14:39:23.600Z,100226.04
2017-11-19T14:42:24.987Z,100219.61
2017-11-19T14:45:26.450Z,100223.21
2017-11-19T14:48:27.790Z,100227.70
2017-11-19T14:51:29.219Z,100232.57
2017-11-19T14:54:30.591Z,100231.05
2017-11-19T14:57:32.743Z,100233.69
2017-11-19T15:00:34.220Z,100230.16
2017-11-19T15:03:35.583Z,100228.62
2017-11-19T15:06:37.091Z,100235.84
2017-11-19T15:09:38.486Z,100240.68
2017-11-19T15:12:40.077Z,100237.61
2017-11-19T15:15:45.222Z,100245.27
2017-11-19T15:18:46.671Z,100256.00
2017-11-19T15:21:48.070Z,100245.81
2017-11-19T15:24:49.457Z,100255.33
2017-11-19T15:27:50.874Z,100252.92
2017-11-19T15:30:52.238Z,100255.50
2017-11-19T15:33:53.644Z,100260.86
2017-11-19T15:36:54.998Z,100265.05
2017-11-19T15:39:56.365Z,100263.09
2017-11-19T15:42:57.762Z,100275.44
2017-11-19T15:45:59.826Z,100277.99
2017-11-19T15:49:02.609Z,100272.42
2017-11-19T15:52:04.796Z,100277.55
2017-11-19T15:55:06.191Z,100276.11
2017-11-19T15:58:07.572Z,100276.73
2017-11-19T16:01:09.439Z,100272.23
2017-11-19T16:04:12.214Z,100267.63
2017-11-19T16:07:14.123Z,100267.83
2017-11-19T16:10:15.510Z,100279.15
2017-11-19T16:13:16.905Z,100281.25
2017-11-19T16:16:18.294Z,100291.55
2017-11-19T16:19:19.706Z,100295.62
2017-11-19T16:22:21.156Z,100290.30
2017-11-19T16:25:23.429Z,100293.25
2017-11-19T16:28:25.504Z,100299.84
2017-11-19T16:31:26.907Z,100306.55
2017-11-19T16:34:28.302Z,100307.33
2017-11-19T16:37:29.784Z,100313.14
2017-11-19T16:40:31.157Z,100312.84
2017-11-19T16:43:32.587Z,100307.48
2017-11-19T16:46:34.035Z,100309.64
2017-11-19T16:49:35.423Z,100313.86
2017-11-19T16:52:37.124Z,100316.36
2017-11-19T16:55:38.598Z,100328.05
2017-11-19T16:58:40.076Z,100324.45
2017-11-19T17:01:41.498Z,100331.03
2017-11-19T17:04:42.993Z,100333.13
2017-11-19T17:07:44.487Z,100338.14
2017-11-19T17:10:46.745Z,100344.56
2017-11-19T17:13:49.007Z,100357.64
2017-11-19T17:16:51.244Z,100348.63
2017-11-19T17:19:52.746Z,100348.26
2017-11-19T17:22:54.934Z,100361.73
2017-11-19T17:25:56.445Z,100367.64
2017-11-19T17:28:57.915Z,100359.56
2017-11-19T17:31:59.437Z,100370.27
2017-11-19T17:35:00.935Z,100378.25
2017-11-19T17:38:03.233Z,100351.83
2017-11-19T17:41:04.753Z,100372.95
2017-11-19T17:44:06.967Z,100375.23
2017-11-19T17:47:08.429Z,100380.26
2017-11-19T17:50:09.874Z,100379.05
2017-11-19T17:53:11.381Z,100378.33
2017-11-19T17:56:13.595Z,100382.95
2017-11-19T17:59:15.085Z,100386.17
2017-11-19T18:02:16.580Z,100386.00
2017-11-19T18:05:18.963Z,100390.78
2017-11-19T18:08:20.426Z,100394.27
2017-11-19T18:11:21.870Z,100397.36
2017-11-19T18:14:23.346Z,100389.98
2017-11-19T18:17:24.753Z,100405.21
2017-11-19T18:20:27.005Z,100414.38
2017-11-19T18:23:28.512Z,100421.10
2017-11-19T18:26:29.948Z,100420.28
2017-11-19T18:29:32.172Z,100418.91
2017-11-19T18:32:33.623Z,100415.42
2017-11-19T18:35:35.079Z,100419.76
2017-11-19T18:41:44.650Z,100429.84
2017-11-19T18:44:46.102Z,100429.77
2017-11-19T18:47:47.533Z,100425.95
2017-11-19T18:50:49.001Z,100432.09
2017-11-19T18:53:51.237Z,100441.70
2017-11-19T18:56:52.697Z,100435.56
2017-11-19T18:59:54.216Z,100449.62
2017-11-19T19:02:55.656Z,100452.62
2017-11-19T19:05:57.129Z,100454.41
2017-11-19T19:08:59.326Z,100456.17
2017-11-19T19:12:00.791Z,100444.70
2017-11-19T19:15:02.445Z,100447.83
2017-11-19T19:18:04.010Z,100451.38
2017-11-19T19:21:05.454Z,100446.98
2017-11-19T19:24:06.882Z,100447.00
2017-11-19T19:27:09.085Z,100454.02
2017-11-19T19:30:10.493Z,100454.44
2017-11-19T19:33:11.928Z,100450.50
2017-11-19T19:36:13.424Z,100461.44
2017-11-19T19:39:14.881Z,100465.34
2017-11-19T19:42:16.340Z,100463.20
2017-11-19T19:45:17.752Z,100463.63
2017-11-19T19:48:19.225Z,100472.83
2017-11-19T19:51:21.445Z,100478.07
2017-11-19T19:54:22.892Z,100477.23
2017-11-19T19:57:24.373Z,100479.42
2017-11-19T20:00:25.844Z,100488.59
2017-11-19T20:03:27.357Z,100493.44
2017-11-19T20:06:28.835Z,100490.80
2017-11-19T20:09:30.343Z,100499.58
2017-11-19T20:12:32.568Z,100512.29
2017-11-19T20:15:34.138Z,100509.98
2017-11-19T20:18:35.682Z,100512.70
2017-11-19T20:21:37.201Z,100521.48
2017-11-19T20:24:38.715Z,100527.16
2017-11-19T20:27:40.236Z,100530.25
2017-11-19T20:30:41.778Z,100539.02
2017-11-19T20:33:43.266Z,100539.03
2017-11-19T20:36:44.770Z,100541.17
2017-11-19T20:39:46.322Z,100541.66
2017-11-19T20:42:48.629Z,100542.53
2017-11-19T20:45:50.113Z,100547.34
2017-11-19T20:52:00.098Z,100556.11
2017-11-19T20:55:02.421Z,100549.07
2017-11-19T20:58:03.998Z,100550.43
2017-11-19T21:01:05.513Z,100545.15
2017-11-19T21:11:28.490Z,100560.89
2017-11-19T21:14:31.440Z,100549.56
2017-11-19T21:17:33.724Z,100554.78
2017-11-19T21:20:35.459Z,100556.11
2017-11-19T21:23:37.797Z,100552.14
2017-11-19T21:26:40.030Z,100556.98
2017-11-19T21:29:41.465Z,100557.89
2017-11-19T21:32:43.062Z,100562.28
2017-11-19T21:35:44.600Z,100563.56
2017-11-19T21:38:46.158Z,100571.88
2017-11-19T21:41:47.697Z,100569.27
2017-11-19T21:44:49.246Z,100577.61
2017-11-19T21:47:50.767Z,100572.73
2017-11-19T21:50:52.237Z,100574.97
2017-11-19T21:53:53.741Z,100583.64
2017-11-19T21:56:55.254Z,100587.65
2017-11-19T21:59:59.354Z,100584.62
2017-11-19T22:03:02.046Z,100582.01
2017-11-19T22:06:05.481Z,100568.83
2017-11-19T22:09:08.543Z,100578.94
2017-11-19T22:12:10.125Z,100575.40
2017-11-19T22:15:11.845Z,100582.36
2017-11-19T22:18:16.264Z,100585.42
2017-11-19T22:21:17.742Z,100574.97
2017-11-19T22:24:20.535Z,100569.27
2017-11-19T22:27:23.619Z,100575.39
2017-11-19T22:30:25.908Z,100581.91
2017-11-19T22:33:28.123Z,100573.66
2017-11-19T22:36:29.605Z,100582.34
2017-11-19T22:39:31.076Z,100589.87
2017-11-19T22:42:32.551Z,100574.52
2017-11-19T22:45:34.031Z,100577.59
2017-11-19T22:48:36.244Z,100569.23
2017-11-19T22:51:37.661Z,100584.56
2017-11-19T22:54:39.910Z,100576.28
2017-11-19T22:57:41.484Z,100567.52
2017-11-19T23:00:43.876Z,100580.20
2017-11-19T23:03:45.455Z,100572.30
2017-11-19T23:06:46.979Z,100560.49
2017-11-19T23:09:48.507Z,100564.88
2017-11-19T23:12:49.974Z,100559.19
2017-11-19T23:15:51.506Z,100557.44
2017-11-19T23:18:53.013Z,100560.05
2017-11-19T23:21:54.759Z,100558.74
2017-11-19T23:24:56.318Z,100560.07
2017-11-19T23:27:57.807Z,100563.11
2017-11-19T23:30:59.319Z,100569.70
2017-11-19T23:34:00.950Z,100576.63
2017-11-19T23:37:02.463Z,100566.20
2017-11-19T23:40:04.110Z,100562.25
2017-11-19T23:43:05.655Z,100566.22
2017-11-19T23:46:07.470Z,100560.92
2017-11-19T23:49:09.706Z,100556.50
2017-11-19T23:52:11.142Z,100555.66
2017-11-19T23:55:12.634Z,100560.95
2017-11-19T23:58:14.044Z,100549.08
